sensor_id;sensor_type;location;lat;lon;timestamp;temperature;humidity
51811;DHT22;52468;40.116;18.296;2023-07-28T00:00:49;22.70;51.20
51811;DHT22;52468;40.116;18.296;2023-07-28T00:03:17;22.60;51.20
51811;DHT22;52468;40.116;18.296;2023-07-28T00:05:45;22.60;51.40
51811;DHT22;52468;40.116;18.296;2023-07-28T00:08:13;22.50;51.50
51811;DHT22;52468;40.116;18.296;2023-07-28T00:10:42;22.60;51.40
51811;DHT22;52468;40.116;18.296;2023-07-28T00:13:10;22.60;51.30
51811;DHT22;52468;40.116;18.296;2023-07-28T00:15:38;22.60;51.30
51811;DHT22;52468;40.116;18.296;2023-07-28T00:18:05;22.50;51.50
51811;DHT22;52468;40.116;18.296;2023-07-28T00:20:33;22.50;51.60
51811;DHT22;52468;40.116;18.296;2023-07-28T00:23:01;22.40;51.70
51811;DHT22;52468;40.116;18.296;2023-07-28T00:25:29;22.40;51.80
51811;DHT22;52468;40.116;18.296;2023-07-28T00:27:57;22.40;51.80
51811;DHT22;52468;40.116;18.296;2023-07-28T00:30:25;22.30;51.90
51811;DHT22;52468;40.116;18.296;2023-07-28T00:32:54;22.30;52.00
51811;DHT22;52468;40.116;18.296;2023-07-28T00:35:22;22.30;52.10
51811;DHT22;52468;40.116;18.296;2023-07-28T00:37:50;22.20;52.00
51811;DHT22;52468;40.116;18.296;2023-07-28T00:40:17;22.20;52.00
51811;DHT22;52468;40.116;18.296;2023-07-28T00:42:45;22.20;52.10
51811;DHT22;52468;40.116;18.296;2023-07-28T00:45:13;22.30;52.00
51811;DHT22;52468;40.116;18.296;2023-07-28T00:47:42;22.20;52.00
51811;DHT22;52468;40.116;18.296;2023-07-28T00:50:10;22.30;51.80
51811;DHT22;52468;40.116;18.296;2023-07-28T00:52:40;22.30;51.80
51811;DHT22;52468;40.116;18.296;2023-07-28T00:55:08;22.30;51.70
51811;DHT22;52468;40.116;18.296;2023-07-28T00:57:36;22.30;51.70
51811;DHT22;52468;40.116;18.296;2023-07-28T01:00:07;22.30;51.70
51811;DHT22;52468;40.116;18.296;2023-07-28T01:02:35;22.30;51.70
51811;DHT22;52468;40.116;18.296;2023-07-28T01:05:04;22.30;51.70
51811;DHT22;52468;40.116;18.296;2023-07-28T01:10:24;22.20;51.90
51811;DHT22;52468;40.116;18.296;2023-07-28T01:12:54;22.20;51.90
51811;DHT22;52468;40.116;18.296;2023-07-28T01:15:21;22.20;52.10
51811;DHT22;52468;40.116;18.296;2023-07-28T01:17:50;22.20;52.10
51811;DHT22;52468;40.116;18.296;2023-07-28T01:20:18;22.20;52.20
51811;DHT22;52468;40.116;18.296;2023-07-28T01:26:04;22.10;52.30
51811;DHT22;52468;40.116;18.296;2023-07-28T01:28:34;22.10;52.50
51811;DHT22;52468;40.116;18.296;2023-07-28T01:31:04;22.10;52.60
51811;DHT22;52468;40.116;18.296;2023-07-28T01:33:32;22.00;52.70
51811;DHT22;52468;40.116;18.296;2023-07-28T01:36:00;22.00;52.80
51811;DHT22;52468;40.116;18.296;2023-07-28T01:38:28;22.00;52.90
51811;DHT22;52468;40.116;18.296;2023-07-28T01:40:56;22.00;53.00
51811;DHT22;52468;40.116;18.296;2023-07-28T01:43:24;22.00;53.20
51811;DHT22;52468;40.116;18.296;2023-07-28T01:45:52;22.00;53.30
51811;DHT22;52468;40.116;18.296;2023-07-28T01:48:20;21.90;53.30
51811;DHT22;52468;40.116;18.296;2023-07-28T01:50:48;21.80;53.40
51811;DHT22;52468;40.116;18.296;2023-07-28T01:53:16;21.80;53.50
51811;DHT22;52468;40.116;18.296;2023-07-28T01:55:44;21.80;53.40
51811;DHT22;52468;40.116;18.296;2023-07-28T01:58:12;21.90;53.30
51811;DHT22;52468;40.116;18.296;2023-07-28T02:00:40;21.70;53.50
51811;DHT22;52468;40.116;18.296;2023-07-28T02:03:08;21.80;53.60
51811;DHT22;52468;40.116;18.296;2023-07-28T02:05:36;21.70;53.70
51811;DHT22;52468;40.116;18.296;2023-07-28T02:08:04;21.70;53.80
51811;DHT22;52468;40.116;18.296;2023-07-28T02:10:32;21.60;54.00
51811;DHT22;52468;40.116;18.296;2023-07-28T02:13:00;21.60;54.10
51811;DHT22;52468;40.116;18.296;2023-07-28T02:15:28;21.60;54.10
51811;DHT22;52468;40.116;18.296;2023-07-28T02:17:55;21.60;54.20
51811;DHT22;52468;40.116;18.296;2023-07-28T02:20:24;21.60;54.20
51811;DHT22;52468;40.116;18.296;2023-07-28T02:22:52;21.60;54.30
51811;DHT22;52468;40.116;18.296;2023-07-28T02:25:20;21.60;54.50
51811;DHT22;52468;40.116;18.296;2023-07-28T02:27:48;21.60;54.70
51811;DHT22;52468;40.116;18.296;2023-07-28T02:30:17;21.50;54.80
51811;DHT22;52468;40.116;18.296;2023-07-28T02:32:45;21.50;54.90
51811;DHT22;52468;40.116;18.296;2023-07-28T02:35:13;21.50;55.00
51811;DHT22;52468;40.116;18.296;2023-07-28T02:37:41;21.40;55.00
51811;DHT22;52468;40.116;18.296;2023-07-28T02:40:10;21.40;55.20
51811;DHT22;52468;40.116;18.296;2023-07-28T02:42:38;21.30;55.20
51811;DHT22;52468;40.116;18.296;2023-07-28T02:45:07;21.30;55.30
51811;DHT22;52468;40.116;18.296;2023-07-28T02:47:35;21.30;55.30
51811;DHT22;52468;40.116;18.296;2023-07-28T02:50:03;21.30;55.50
51811;DHT22;52468;40.116;18.296;2023-07-28T02:52:32;21.20;55.60
51811;DHT22;52468;40.116;18.296;2023-07-28T02:55:00;21.20;55.50
51811;DHT22;52468;40.116;18.296;2023-07-28T02:57:30;21.20;55.60
51811;DHT22;52468;40.116;18.296;2023-07-28T02:59:58;21.20;55.60
51811;DHT22;52468;40.116;18.296;2023-07-28T03:02:26;21.10;55.60
51811;DHT22;52468;40.116;18.296;2023-07-28T03:04:57;21.10;55.70
51811;DHT22;52468;40.116;18.296;2023-07-28T03:07:34;21.10;55.80
51811;DHT22;52468;40.116;18.296;2023-07-28T03:10:06;21.10;55.90
51811;DHT22;52468;40.116;18.296;2023-07-28T03:12:37;21.10;55.80
51811;DHT22;52468;40.116;18.296;2023-07-28T03:15:05;21.10;55.80
51811;DHT22;52468;40.116;18.296;2023-07-28T03:17:33;21.10;55.80
51811;DHT22;52468;40.116;18.296;2023-07-28T03:20:01;21.10;55.70
51811;DHT22;52468;40.116;18.296;2023-07-28T03:22:29;21.10;55.60
51811;DHT22;52468;40.116;18.296;2023-07-28T03:24:58;21.20;55.60
51811;DHT22;52468;40.116;18.296;2023-07-28T03:27:26;21.20;55.40
51811;DHT22;52468;40.116;18.296;2023-07-28T03:29:53;21.20;55.70
51811;DHT22;52468;40.116;18.296;2023-07-28T03:32:23;21.10;55.70
51811;DHT22;52468;40.116;18.296;2023-07-28T03:34:51;21.10;55.60
51811;DHT22;52468;40.116;18.296;2023-07-28T03:37:20;21.10;55.70
51811;DHT22;52468;40.116;18.296;2023-07-28T03:39:48;21.20;55.60
51811;DHT22;52468;40.116;18.296;2023-07-28T03:42:17;21.20;55.40
51811;DHT22;52468;40.116;18.296;2023-07-28T03:44:45;21.20;55.50
51811;DHT22;52468;40.116;18.296;2023-07-28T03:47:13;21.10;55.50
51811;DHT22;52468;40.116;18.296;2023-07-28T03:49:41;21.30;55.30
51811;DHT22;52468;40.116;18.296;2023-07-28T03:52:09;21.30;55.20
51811;DHT22;52468;40.116;18.296;2023-07-28T03:54:36;21.30;55.20
51811;DHT22;52468;40.116;18.296;2023-07-28T03:57:05;21.40;55.20
51811;DHT22;52468;40.116;18.296;2023-07-28T03:59:33;21.50;55.10
51811;DHT22;52468;40.116;18.296;2023-07-28T04:02:00;21.70;55.00
51811;DHT22;52468;40.116;18.296;2023-07-28T04:04:28;21.90;54.40
51811;DHT22;52468;40.116;18.296;2023-07-28T04:06:56;22.10;53.80
51811;DHT22;52468;40.116;18.296;2023-07-28T04:09:24;22.30;53.10
51811;DHT22;52468;40.116;18.296;2023-07-28T04:11:52;22.30;52.90
51811;DHT22;52468;40.116;18.296;2023-07-28T04:14:20;22.40;52.80
51811;DHT22;52468;40.116;18.296;2023-07-28T04:16:48;22.50;52.60
51811;DHT22;52468;40.116;18.296;2023-07-28T04:19:16;22.50;52.50
51811;DHT22;52468;40.116;18.296;2023-07-28T04:21:43;22.60;52.10
51811;DHT22;52468;40.116;18.296;2023-07-28T04:24:12;22.70;51.80
51811;DHT22;52468;40.116;18.296;2023-07-28T04:26:46;22.90;51.50
51811;DHT22;52468;40.116;18.296;2023-07-28T04:29:16;23.10;50.80
51811;DHT22;52468;40.116;18.296;2023-07-28T04:31:44;23.20;50.50
51811;DHT22;52468;40.116;18.296;2023-07-28T04:34:15;23.40;50.10
51811;DHT22;52468;40.116;18.296;2023-07-28T04:37:02;23.50;49.80
51811;DHT22;52468;40.116;18.296;2023-07-28T04:39:42;23.60;49.30
51811;DHT22;52468;40.116;18.296;2023-07-28T04:42:13;23.90;48.60
51811;DHT22;52468;40.116;18.296;2023-07-28T04:44:45;24.20;47.90
51811;DHT22;52468;40.116;18.296;2023-07-28T04:47:15;24.50;47.40
51811;DHT22;52468;40.116;18.296;2023-07-28T04:49:43;24.60;46.80
51811;DHT22;52468;40.116;18.296;2023-07-28T04:52:11;24.80;46.40
51811;DHT22;52468;40.116;18.296;2023-07-28T04:54:39;25.00;46.10
51811;DHT22;52468;40.116;18.296;2023-07-28T04:57:07;25.10;45.80
51811;DHT22;52468;40.116;18.296;2023-07-28T04:59:37;25.20;45.90
51811;DHT22;52468;40.116;18.296;2023-07-28T05:02:05;25.30;45.70
51811;DHT22;52468;40.116;18.296;2023-07-28T05:04:34;25.40;45.30
51811;DHT22;52468;40.116;18.296;2023-07-28T05:07:04;25.40;45.10
51811;DHT22;52468;40.116;18.296;2023-07-28T05:09:32;25.30;44.90
51811;DHT22;52468;40.116;18.296;2023-07-28T05:12:00;25.40;44.60
51811;DHT22;52468;40.116;18.296;2023-07-28T05:14:30;25.40;44.30
51811;DHT22;52468;40.116;18.296;2023-07-28T05:16:58;25.40;44.40
51811;DHT22;52468;40.116;18.296;2023-07-28T05:19:36;25.50;44.10
51811;DHT22;52468;40.116;18.296;2023-07-28T05:22:24;25.60;43.80
51811;DHT22;52468;40.116;18.296;2023-07-28T05:24:55;25.80;43.70
51811;DHT22;52468;40.116;18.296;2023-07-28T05:27:27;25.90;43.60
51811;DHT22;52468;40.116;18.296;2023-07-28T05:29:55;26.10;43.60
51811;DHT22;52468;40.116;18.296;2023-07-28T05:32:23;26.20;43.60
51811;DHT22;52468;40.116;18.296;2023-07-28T05:35:29;26.40;43.70
51811;DHT22;52468;40.116;18.296;2023-07-28T05:37:57;26.70;43.60
51811;DHT22;52468;40.116;18.296;2023-07-28T05:40:25;26.70;43.80
51811;DHT22;52468;40.116;18.296;2023-07-28T05:42:53;26.80;44.00
51811;DHT22;52468;40.116;18.296;2023-07-28T05:45:21;27.00;44.00
51811;DHT22;52468;40.116;18.296;2023-07-28T05:47:49;27.10;43.80
51811;DHT22;52468;40.116;18.296;2023-07-28T05:50:17;27.40;43.60
51811;DHT22;52468;40.116;18.296;2023-07-28T05:52:45;27.50;43.50
51811;DHT22;52468;40.116;18.296;2023-07-28T05:55:13;27.60;43.40
51811;DHT22;52468;40.116;18.296;2023-07-28T05:57:41;27.70;43.50
51811;DHT22;52468;40.116;18.296;2023-07-28T06:00:10;27.90;43.30
51811;DHT22;52468;40.116;18.296;2023-07-28T06:02:43;28.00;43.10
51811;DHT22;52468;40.116;18.296;2023-07-28T06:05:25;28.20;43.40
51811;DHT22;52468;40.116;18.296;2023-07-28T06:07:54;28.50;43.10
51811;DHT22;52468;40.116;18.296;2023-07-28T06:10:22;28.70;43.00
51811;DHT22;52468;40.116;18.296;2023-07-28T06:12:50;28.80;43.00
51811;DHT22;52468;40.116;18.296;2023-07-28T06:15:18;28.80;43.40
51811;DHT22;52468;40.116;18.296;2023-07-28T06:17:46;29.00;43.70
51811;DHT22;52468;40.116;18.296;2023-07-28T06:20:14;29.00;43.90
51811;DHT22;52468;40.116;18.296;2023-07-28T06:22:42;29.00;44.10
51811;DHT22;52468;40.116;18.296;2023-07-28T06:25:10;29.00;43.90
51811;DHT22;52468;40.116;18.296;2023-07-28T06:27:38;28.90;43.70
51811;DHT22;52468;40.116;18.296;2023-07-28T06:30:07;28.90;43.60
51811;DHT22;52468;40.116;18.296;2023-07-28T06:32:35;29.00;43.50
51811;DHT22;52468;40.116;18.296;2023-07-28T06:35:03;29.20;42.90
51811;DHT22;52468;40.116;18.296;2023-07-28T06:37:31;29.10;42.30
51811;DHT22;52468;40.116;18.296;2023-07-28T06:40:00;29.20;42.10
51811;DHT22;52468;40.116;18.296;2023-07-28T06:42:27;29.40;41.50
51811;DHT22;52468;40.116;18.296;2023-07-28T06:44:56;29.40;41.70
51811;DHT22;52468;40.116;18.296;2023-07-28T06:47:25;29.60;41.40
51811;DHT22;52468;40.116;18.296;2023-07-28T06:49:53;29.90;41.30
51811;DHT22;52468;40.116;18.296;2023-07-28T06:52:21;30.00;40.90
51811;DHT22;52468;40.116;18.296;2023-07-28T06:54:49;30.00;40.90
51811;DHT22;52468;40.116;18.296;2023-07-28T06:57:17;30.00;41.20
51811;DHT22;52468;40.116;18.296;2023-07-28T06:59:47;30.00;41.10
51811;DHT22;52468;40.116;18.296;2023-07-28T07:02:15;30.10;40.20
51811;DHT22;52468;40.116;18.296;2023-07-28T07:04:43;30.00;40.00
51811;DHT22;52468;40.116;18.296;2023-07-28T07:07:11;30.20;39.00
51811;DHT22;52468;40.116;18.296;2023-07-28T07:09:39;30.30;38.20
51811;DHT22;52468;40.116;18.296;2023-07-28T07:12:08;30.40;37.50
51811;DHT22;52468;40.116;18.296;2023-07-28T07:14:36;30.50;37.10
51811;DHT22;52468;40.116;18.296;2023-07-28T07:17:06;30.70;37.00
51811;DHT22;52468;40.116;18.296;2023-07-28T07:19:34;30.80;36.70
51811;DHT22;52468;40.116;18.296;2023-07-28T07:22:02;31.00;35.70
51811;DHT22;52468;40.116;18.296;2023-07-28T07:24:30;31.10;34.90
51811;DHT22;52468;40.116;18.296;2023-07-28T07:26:58;31.00;34.20
51811;DHT22;52468;40.116;18.296;2023-07-28T07:29:28;31.10;33.90
51811;DHT22;52468;40.116;18.296;2023-07-28T07:31:56;31.10;34.00
51811;DHT22;52468;40.116;18.296;2023-07-28T07:34:24;31.30;34.00
51811;DHT22;52468;40.116;18.296;2023-07-28T07:36:52;31.30;33.40
51811;DHT22;52468;40.116;18.296;2023-07-28T07:39:20;31.20;32.60
51811;DHT22;52468;40.116;18.296;2023-07-28T07:41:48;31.30;31.50
51811;DHT22;52468;40.116;18.296;2023-07-28T07:44:16;31.30;31.80
51811;DHT22;52468;40.116;18.296;2023-07-28T07:46:44;31.30;32.10
51811;DHT22;52468;40.116;18.296;2023-07-28T07:49:12;31.50;32.20
51811;DHT22;52468;40.116;18.296;2023-07-28T07:51:40;31.40;32.30
51811;DHT22;52468;40.116;18.296;2023-07-28T07:54:08;31.50;31.60
51811;DHT22;52468;40.116;18.296;2023-07-28T07:56:36;31.70;30.90
51811;DHT22;52468;40.116;18.296;2023-07-28T07:59:04;31.80;30.70
51811;DHT22;52468;40.116;18.296;2023-07-28T08:01:32;31.60;30.70
51811;DHT22;52468;40.116;18.296;2023-07-28T08:04:00;31.70;30.50
51811;DHT22;52468;40.116;18.296;2023-07-28T08:06:28;31.90;30.00
51811;DHT22;52468;40.116;18.296;2023-07-28T08:08:56;32.20;29.60
51811;DHT22;52468;40.116;18.296;2023-07-28T08:11:26;32.40;29.30
51811;DHT22;52468;40.116;18.296;2023-07-28T08:13:55;32.40;29.20
51811;DHT22;52468;40.116;18.296;2023-07-28T08:16:23;32.50;28.90
51811;DHT22;52468;40.116;18.296;2023-07-28T08:18:51;32.50;28.60
51811;DHT22;52468;40.116;18.296;2023-07-28T08:21:19;32.60;28.70
51811;DHT22;52468;40.116;18.296;2023-07-28T08:23:47;32.70;28.30
51811;DHT22;52468;40.116;18.296;2023-07-28T08:26:15;32.80;28.20
51811;DHT22;52468;40.116;18.296;2023-07-28T08:28:42;32.90;28.10
51811;DHT22;52468;40.116;18.296;2023-07-28T08:31:10;32.90;28.00
51811;DHT22;52468;40.116;18.296;2023-07-28T08:33:38;32.90;28.30
51811;DHT22;52468;40.116;18.296;2023-07-28T08:36:06;33.00;28.00
51811;DHT22;52468;40.116;18.296;2023-07-28T08:38:34;33.10;27.40
51811;DHT22;52468;40.116;18.296;2023-07-28T08:41:02;33.20;27.20
51811;DHT22;52468;40.116;18.296;2023-07-28T08:43:31;33.20;27.30
51811;DHT22;52468;40.116;18.296;2023-07-28T08:45:59;33.40;27.60
51811;DHT22;52468;40.116;18.296;2023-07-28T08:48:27;33.40;27.60
51811;DHT22;52468;40.116;18.296;2023-07-28T08:50:55;33.30;27.50
51811;DHT22;52468;40.116;18.296;2023-07-28T08:53:23;33.60;27.40
51811;DHT22;52468;40.116;18.296;2023-07-28T08:55:51;33.50;27.10
51811;DHT22;52468;40.116;18.296;2023-07-28T08:58:21;33.50;27.30
51811;DHT22;52468;40.116;18.296;2023-07-28T09:00:51;33.80;27.30
51811;DHT22;52468;40.116;18.296;2023-07-28T09:03:19;34.40;26.70
51811;DHT22;52468;40.116;18.296;2023-07-28T09:05:47;34.40;26.60
51811;DHT22;52468;40.116;18.296;2023-07-28T09:08:16;34.20;26.90
51811;DHT22;52468;40.116;18.296;2023-07-28T09:10:48;34.10;27.40
51811;DHT22;52468;40.116;18.296;2023-07-28T09:13:18;34.10;27.80
51811;DHT22;52468;40.116;18.296;2023-07-28T09:15:47;34.20;27.40
51811;DHT22;52468;40.116;18.296;2023-07-28T09:18:16;34.30;27.30
51811;DHT22;52468;40.116;18.296;2023-07-28T09:20:44;34.50;27.10
51811;DHT22;52468;40.116;18.296;2023-07-28T09:23:14;34.90;26.80
51811;DHT22;52468;40.116;18.296;2023-07-28T09:25:42;34.90;26.80
51811;DHT22;52468;40.116;18.296;2023-07-28T09:28:10;34.80;26.50
51811;DHT22;52468;40.116;18.296;2023-07-28T09:30:49;34.50;26.40
51811;DHT22;52468;40.116;18.296;2023-07-28T09:33:30;34.40;26.70
51811;DHT22;52468;40.116;18.296;2023-07-28T09:36:07;34.60;26.60
51811;DHT22;52468;40.116;18.296;2023-07-28T09:38:40;34.50;26.70
51811;DHT22;52468;40.116;18.296;2023-07-28T09:41:10;34.60;26.60
51811;DHT22;52468;40.116;18.296;2023-07-28T09:43:40;34.80;26.50
51811;DHT22;52468;40.116;18.296;2023-07-28T09:46:09;34.90;26.50
51811;DHT22;52468;40.116;18.296;2023-07-28T09:48:38;34.90;26.40
51811;DHT22;52468;40.116;18.296;2023-07-28T09:51:17;34.80;26.20
51811;DHT22;52468;40.116;18.296;2023-07-28T09:53:58;35.00;26.00
51811;DHT22;52468;40.116;18.296;2023-07-28T09:56:28;35.10;26.00
51811;DHT22;52468;40.116;18.296;2023-07-28T09:59:00;35.10;26.00
51811;DHT22;52468;40.116;18.296;2023-07-28T10:01:29;35.30;25.90
51811;DHT22;52468;40.116;18.296;2023-07-28T10:03:58;35.30;25.60
51811;DHT22;52468;40.116;18.296;2023-07-28T10:06:26;35.40;25.90
51811;DHT22;52468;40.116;18.296;2023-07-28T10:08:55;35.60;26.40
51811;DHT22;52468;40.116;18.296;2023-07-28T10:11:23;36.00;25.90
51811;DHT22;52468;40.116;18.296;2023-07-28T10:13:54;36.10;25.70
51811;DHT22;52468;40.116;18.296;2023-07-28T10:16:30;35.80;25.30
51811;DHT22;52468;40.116;18.296;2023-07-28T10:18:59;36.00;25.30
51811;DHT22;52468;40.116;18.296;2023-07-28T10:21:28;35.80;25.60
51811;DHT22;52468;40.116;18.296;2023-07-28T10:23:58;36.00;25.40
51811;DHT22;52468;40.116;18.296;2023-07-28T10:26:38;36.50;25.00
51811;DHT22;52468;40.116;18.296;2023-07-28T10:29:09;36.60;25.00
51811;DHT22;52468;40.116;18.296;2023-07-28T10:31:37;36.50;25.50
51811;DHT22;52468;40.116;18.296;2023-07-28T10:34:17;36.30;25.50
51811;DHT22;52468;40.116;18.296;2023-07-28T10:36:46;36.50;25.20
51811;DHT22;52468;40.116;18.296;2023-07-28T10:39:16;36.50;24.90
51811;DHT22;52468;40.116;18.296;2023-07-28T10:42:05;36.30;25.30
51811;DHT22;52468;40.116;18.296;2023-07-28T10:44:34;36.60;25.10
51811;DHT22;52468;40.116;18.296;2023-07-28T10:47:07;36.50;25.70
51811;DHT22;52468;40.116;18.296;2023-07-28T10:49:37;36.20;26.40
51811;DHT22;52468;40.116;18.296;2023-07-28T10:52:05;36.20;26.40
51811;DHT22;52468;40.116;18.296;2023-07-28T10:54:33;36.50;26.60
51811;DHT22;52468;40.116;18.296;2023-07-28T10:57:02;36.60;26.20
51811;DHT22;52468;40.116;18.296;2023-07-28T10:59:31;36.50;26.20
51811;DHT22;52468;40.116;18.296;2023-07-28T11:01:59;36.50;26.20
51811;DHT22;52468;40.116;18.296;2023-07-28T11:04:27;36.00;26.60
51811;DHT22;52468;40.116;18.296;2023-07-28T11:06:55;36.10;26.60
51811;DHT22;52468;40.116;18.296;2023-07-28T11:09:23;36.10;26.60
51811;DHT22;52468;40.116;18.296;2023-07-28T11:11:51;36.00;26.80
51811;DHT22;52468;40.116;18.296;2023-07-28T11:14:19;36.10;26.60
51811;DHT22;52468;40.116;18.296;2023-07-28T11:16:48;36.10;26.30
51811;DHT22;52468;40.116;18.296;2023-07-28T11:19:17;36.20;26.30
51811;DHT22;52468;40.116;18.296;2023-07-28T11:21:52;36.30;26.30
51811;DHT22;52468;40.116;18.296;2023-07-28T11:24:21;35.90;26.30
51811;DHT22;52468;40.116;18.296;2023-07-28T11:26:50;36.00;26.40
51811;DHT22;52468;40.116;18.296;2023-07-28T11:29:18;36.10;26.30
51811;DHT22;52468;40.116;18.296;2023-07-28T11:31:48;36.20;26.40
51811;DHT22;52468;40.116;18.296;2023-07-28T11:34:16;36.30;26.00
51811;DHT22;52468;40.116;18.296;2023-07-28T11:36:46;36.30;25.90
51811;DHT22;52468;40.116;18.296;2023-07-28T11:39:14;36.60;25.60
51811;DHT22;52468;40.116;18.296;2023-07-28T11:41:44;37.00;24.70
51811;DHT22;52468;40.116;18.296;2023-07-28T11:44:15;37.10;24.60
51811;DHT22;52468;40.116;18.296;2023-07-28T11:46:44;37.20;24.60
51811;DHT22;52468;40.116;18.296;2023-07-28T11:49:19;37.20;24.70
51811;DHT22;52468;40.116;18.296;2023-07-28T11:51:52;37.50;24.40
51811;DHT22;52468;40.116;18.296;2023-07-28T11:54:22;37.20;24.70
51811;DHT22;52468;40.116;18.296;2023-07-28T11:56:53;37.20;24.70
51811;DHT22;52468;40.116;18.296;2023-07-28T11:59:21;37.20;24.40
51811;DHT22;52468;40.116;18.296;2023-07-28T12:02:00;37.10;24.60
51811;DHT22;52468;40.116;18.296;2023-07-28T12:04:36;37.00;24.70
51811;DHT22;52468;40.116;18.296;2023-07-28T12:07:14;37.10;24.50
51811;DHT22;52468;40.116;18.296;2023-07-28T12:12:26;37.10;24.50
51811;DHT22;52468;40.116;18.296;2023-07-28T12:14:55;37.00;24.70
51811;DHT22;52468;40.116;18.296;2023-07-28T12:17:26;37.30;24.40
51811;DHT22;52468;40.116;18.296;2023-07-28T12:20:16;37.30;23.90
51811;DHT22;52468;40.116;18.296;2023-07-28T12:22:45;37.00;24.30
51811;DHT22;52468;40.116;18.296;2023-07-28T12:25:13;37.20;24.20
51811;DHT22;52468;40.116;18.296;2023-07-28T12:27:42;37.40;24.30
51811;DHT22;52468;40.116;18.296;2023-07-28T12:30:11;37.60;24.30
51811;DHT22;52468;40.116;18.296;2023-07-28T12:32:42;37.60;24.30
51811;DHT22;52468;40.116;18.296;2023-07-28T12:35:29;37.70;24.20
51811;DHT22;52468;40.116;18.296;2023-07-28T12:38:05;38.10;25.20
51811;DHT22;52468;40.116;18.296;2023-07-28T12:40:36;38.50;25.70
51811;DHT22;52468;40.116;18.296;2023-07-28T12:43:07;38.90;23.70
51811;DHT22;52468;40.116;18.296;2023-07-28T12:45:35;39.00;24.80
51811;DHT22;52468;40.116;18.296;2023-07-28T12:48:06;39.30;25.50
51811;DHT22;52468;40.116;18.296;2023-07-28T12:50:34;39.50;24.10
51811;DHT22;52468;40.116;18.296;2023-07-28T12:53:05;38.90;23.70
51811;DHT22;52468;40.116;18.296;2023-07-28T12:55:38;39.10;24.50
51811;DHT22;52468;40.116;18.296;2023-07-28T12:58:26;39.60;24.50
51811;DHT22;52468;40.116;18.296;2023-07-28T13:00:57;40.20;22.70
51811;DHT22;52468;40.116;18.296;2023-07-28T13:03:29;40.50;22.10
51811;DHT22;52468;40.116;18.296;2023-07-28T13:05:57;40.80;21.80
51811;DHT22;52468;40.116;18.296;2023-07-28T13:08:25;41.50;22.70
51811;DHT22;52468;40.116;18.296;2023-07-28T13:10:56;42.40;22.40
51811;DHT22;52468;40.116;18.296;2023-07-28T13:13:27;43.60;20.40
51811;DHT22;52468;40.116;18.296;2023-07-28T13:15:57;44.90;20.00
51811;DHT22;52468;40.116;18.296;2023-07-28T13:18:25;46.00;19.10
51811;DHT22;52468;40.116;18.296;2023-07-28T13:20:53;46.90;18.70
51811;DHT22;52468;40.116;18.296;2023-07-28T13:23:21;47.20;18.50
51811;DHT22;52468;40.116;18.296;2023-07-28T13:25:49;47.90;18.10
51811;DHT22;52468;40.116;18.296;2023-07-28T13:28:18;48.40;17.80
51811;DHT22;52468;40.116;18.296;2023-07-28T13:30:46;48.20;17.90
51811;DHT22;52468;40.116;18.296;2023-07-28T13:33:14;48.50;17.40
51811;DHT22;52468;40.116;18.296;2023-07-28T13:35:42;48.50;17.50
51811;DHT22;52468;40.116;18.296;2023-07-28T13:38:10;48.80;17.20
51811;DHT22;52468;40.116;18.296;2023-07-28T13:40:38;49.10;16.70
51811;DHT22;52468;40.116;18.296;2023-07-28T13:43:06;49.50;16.50
51811;DHT22;52468;40.116;18.296;2023-07-28T13:45:34;48.90;16.40
51811;DHT22;52468;40.116;18.296;2023-07-28T13:48:02;48.30;17.30
51811;DHT22;52468;40.116;18.296;2023-07-28T13:50:30;48.50;17.70
51811;DHT22;52468;40.116;18.296;2023-07-28T13:53:00;48.80;17.40
51811;DHT22;52468;40.116;18.296;2023-07-28T13:55:49;49.30;17.00
51811;DHT22;52468;40.116;18.296;2023-07-28T13:58:24;48.60;16.50
51811;DHT22;52468;40.116;18.296;2023-07-28T14:00:52;48.30;16.50
51811;DHT22;52468;40.116;18.296;2023-07-28T14:03:20;47.70;17.30
51811;DHT22;52468;40.116;18.296;2023-07-28T14:05:48;48.00;17.50
51811;DHT22;52468;40.116;18.296;2023-07-28T14:08:16;48.80;17.20
51811;DHT22;52468;40.116;18.296;2023-07-28T14:10:45;49.50;16.70
51811;DHT22;52468;40.116;18.296;2023-07-28T14:13:13;50.00;16.40
51811;DHT22;52468;40.116;18.296;2023-07-28T14:15:41;50.50;16.10
51811;DHT22;52468;40.116;18.296;2023-07-28T14:18:09;50.70;16.00
51811;DHT22;52468;40.116;18.296;2023-07-28T14:20:37;50.80;15.70
51811;DHT22;52468;40.116;18.296;2023-07-28T14:23:21;50.20;16.00
51811;DHT22;52468;40.116;18.296;2023-07-28T14:25:49;49.60;16.20
51811;DHT22;52468;40.116;18.296;2023-07-28T14:28:17;49.40;16.40
51811;DHT22;52468;40.116;18.296;2023-07-28T14:30:46;49.70;16.20
51811;DHT22;52468;40.116;18.296;2023-07-28T14:33:15;50.00;16.20
51811;DHT22;52468;40.116;18.296;2023-07-28T14:35:44;50.50;15.90
51811;DHT22;52468;40.116;18.296;2023-07-28T14:38:13;51.20;15.50
51811;DHT22;52468;40.116;18.296;2023-07-28T14:40:41;51.50;15.30
51811;DHT22;52468;40.116;18.296;2023-07-28T14:43:08;50.50;15.80
51811;DHT22;52468;40.116;18.296;2023-07-28T14:45:36;50.40;16.40
51811;DHT22;52468;40.116;18.296;2023-07-28T14:48:04;50.40;16.30
51811;DHT22;52468;40.116;18.296;2023-07-28T14:50:32;50.60;16.10
51811;DHT22;52468;40.116;18.296;2023-07-28T14:53:00;50.90;16.30
51811;DHT22;52468;40.116;18.296;2023-07-28T14:55:28;51.20;16.40
51811;DHT22;52468;40.116;18.296;2023-07-28T14:57:56;51.50;16.30
51811;DHT22;52468;40.116;18.296;2023-07-28T15:00:24;51.90;16.40
51811;DHT22;52468;40.116;18.296;2023-07-28T15:02:52;52.30;15.80
51811;DHT22;52468;40.116;18.296;2023-07-28T15:05:20;51.60;16.30
51811;DHT22;52468;40.116;18.296;2023-07-28T15:07:48;51.50;16.50
51811;DHT22;52468;40.116;18.296;2023-07-28T15:10:17;51.90;16.50
51811;DHT22;52468;40.116;18.296;2023-07-28T15:12:45;51.90;16.40
51811;DHT22;52468;40.116;18.296;2023-07-28T15:15:14;52.00;16.30
51811;DHT22;52468;40.116;18.296;2023-07-28T15:17:42;51.70;16.50
51811;DHT22;52468;40.116;18.296;2023-07-28T15:20:10;51.60;16.70
51811;DHT22;52468;40.116;18.296;2023-07-28T15:22:38;51.60;16.80
51811;DHT22;52468;40.116;18.296;2023-07-28T15:25:07;51.50;16.80
51811;DHT22;52468;40.116;18.296;2023-07-28T15:27:35;51.60;16.90
51811;DHT22;52468;40.116;18.296;2023-07-28T15:30:03;51.40;17.00
51811;DHT22;52468;40.116;18.296;2023-07-28T15:32:33;51.50;17.00
51811;DHT22;52468;40.116;18.296;2023-07-28T15:35:01;51.60;17.00
51811;DHT22;52468;40.116;18.296;2023-07-28T15:37:29;51.70;17.00